createdAt,value
2018-06-28T00:01:15.522Z,2.16
2018-06-28T00:07:10.494Z,2.13
2018-06-28T00:13:05.528Z,1.93
2018-06-28T00:19:00.532Z,1.81
2018-06-28T00:24:55.501Z,1.88
2018-06-28T00:30:50.579Z,1.69
2018-06-28T00:36:45.547Z,1.59
2018-06-28T00:42:40.528Z,2.56
2018-06-28T00:48:35.531Z,2.73
2018-06-28T00:54:30.542Z,2.57
2018-06-28T01:00:25.600Z,2.57
2018-06-28T01:06:20.536Z,2.15
2018-06-28T01:12:15.621Z,2.78
2018-06-28T01:18:10.540Z,1.68
2018-06-28T01:24:05.749Z,2.33
2018-06-28T01:30:00.573Z,2.33
2018-06-28T01:35:55.570Z,2.23
2018-06-28T01:41:50.566Z,1.97
2018-06-28T01:47:45.574Z,1.51
2018-06-28T01:53:40.596Z,1.26
2018-06-28T01:59:35.566Z,1.53
2018-06-28T02:05:30.588Z,1.48
2018-06-28T02:11:25.617Z,1.52
2018-06-28T02:17:20.590Z,1.12
2018-06-28T02:23:15.573Z,1.09
2018-06-28T02:29:10.580Z,1.33
2018-06-28T02:35:05.612Z,1.4
2018-06-28T02:41:00.599Z,1.26
2018-06-28T02:46:55.632Z,1.65
2018-06-28T02:52:50.670Z,1.42
2018-06-28T02:58:45.591Z,1.38
2018-06-28T03:04:40.598Z,1.2
2018-06-28T03:10:35.636Z,1.45
2018-06-28T03:16:30.628Z,1.97
2018-06-28T03:22:25.611Z,1.64
2018-06-28T03:28:20.661Z,1.84
2018-06-28T03:34:15.651Z,1.97
2018-06-28T03:40:10.680Z,1.8
2018-06-28T03:46:05.647Z,1.64
2018-06-28T03:52:00.655Z,1.59
2018-06-28T03:57:55.652Z,2.37
2018-06-28T04:03:50.645Z,1.06
2018-06-28T04:09:45.708Z,1.68
2018-06-28T04:15:40.662Z,1.65
2018-06-28T04:21:35.641Z,1.28
2018-06-28T04:27:30.746Z,1.51
2018-06-28T04:33:25.664Z,1.41
2018-06-28T04:39:20.689Z,1.8
2018-06-28T04:45:15.667Z,1.86
2018-06-28T04:51:10.697Z,3.09
2018-06-28T04:57:05.670Z,2.2
2018-06-28T05:03:00.690Z,1.34
2018-06-28T05:08:55.677Z,1.64
2018-06-28T05:14:50.731Z,1.52
2018-06-28T05:20:45.785Z,1.57
2018-06-28T05:26:40.704Z,1.49
2018-06-28T05:32:35.669Z,1.66
2018-06-28T05:38:30.690Z,2.24
2018-06-28T05:44:25.685Z,5.8
2018-06-28T05:50:20.734Z,9.45
2018-06-28T05:56:15.707Z,10.73
2018-06-28T06:02:10.723Z,9.41
2018-06-28T06:08:05.725Z,8.19
2018-06-28T06:14:00.707Z,6.42
2018-06-28T06:19:55.720Z,3.45
2018-06-28T06:25:50.744Z,2.68
2018-06-28T06:31:45.734Z,2.9
2018-06-28T06:37:40.789Z,3.18
2018-06-28T06:43:35.733Z,2.48
2018-06-28T06:49:30.737Z,3.21
2018-06-28T06:55:25.728Z,3.82
2018-06-28T07:01:20.807Z,2.63
2018-06-28T07:07:15.741Z,2.42
2018-06-28T07:13:10.796Z,2.15
2018-06-28T07:19:05.724Z,2.1
2018-06-28T07:25:00.769Z,2
2018-06-28T07:30:55.787Z,2.05
2018-06-28T07:36:50.770Z,1.86
2018-06-28T07:42:45.810Z,2.06
2018-06-28T07:48:40.794Z,2.01
2018-06-28T07:54:35.796Z,2.56
2018-06-28T08:00:30.834Z,2.13
2018-06-28T08:06:25.755Z,2.11
2018-06-28T08:12:20.791Z,3.3
2018-06-28T08:18:15.775Z,1.59
2018-06-28T08:24:10.810Z,1.27
2018-06-28T08:30:05.826Z,1.33
2018-06-28T08:36:00.807Z,1.13
2018-06-28T08:41:55.786Z,1.29
2018-06-28T08:47:50.818Z,1.51
2018-06-28T08:53:45.791Z,1.13
2018-06-28T08:59:40.801Z,1.23
2018-06-28T09:05:35.880Z,1.19
2018-06-28T09:11:30.822Z,0.91
2018-06-28T09:17:25.797Z,1.01
2018-06-28T09:23:20.855Z,1.02
2018-06-28T09:29:15.826Z,3.06
2018-06-28T09:35:10.950Z,1.01
2018-06-28T09:41:07.863Z,1.18
2018-06-28T09:47:00.857Z,1.11
2018-06-28T09:52:59.039Z,1.19
2018-06-28T09:58:52.774Z,1.16
2018-06-28T10:04:45.821Z,1.03
2018-06-28T10:28:25.881Z,1.25
2018-06-28T10:34:30.124Z,1.54
2018-06-28T10:46:10.873Z,1.52
2018-06-28T10:46:10.919Z,1.61
2018-06-28T10:52:05.916Z,1.81
2018-06-28T10:58:00.876Z,1.66
2018-06-28T11:03:55.883Z,1.67
2018-06-28T11:09:50.913Z,1.97
2018-06-28T11:15:45.942Z,1.55
2018-06-28T11:21:40.912Z,1.45
2018-06-28T11:27:35.919Z,1.71
2018-06-28T11:33:30.894Z,1.83
2018-06-28T11:39:25.903Z,1.55
2018-06-28T11:45:20.920Z,2.16
2018-06-28T11:51:15.912Z,2.36
2018-06-28T11:57:10.894Z,4.84
2018-06-28T12:03:05.986Z,5.65
2018-06-28T12:09:00.915Z,4.63
2018-06-28T12:14:55.921Z,6.73
2018-06-28T12:20:51.251Z,6.83
2018-06-28T12:26:45.906Z,4.4
2018-06-28T12:32:40.952Z,4
2018-06-28T12:38:35.930Z,1.97
2018-06-28T12:44:30.907Z,2.72
2018-06-28T12:50:25.985Z,2.25
2018-06-28T12:56:20.934Z,3.28
2018-06-28T13:02:16.028Z,3.93
2018-06-28T13:08:11.099Z,4.11
2018-06-28T13:14:06.015Z,3.81
2018-06-28T13:20:01.031Z,3.49
2018-06-28T13:25:55.962Z,3.08
2018-06-28T13:31:50.951Z,4.17
2018-06-28T13:37:45.982Z,3.2
2018-06-28T13:43:40.970Z,3.15
2018-06-28T13:49:35.954Z,2.45
2018-06-28T13:55:30.968Z,3.63
2018-06-28T14:01:25.977Z,2.56
2018-06-28T14:07:20.984Z,3.11
2018-06-28T14:13:16.038Z,2.46
2018-06-28T14:19:10.970Z,2.76
2018-06-28T14:25:06.039Z,2.71
2018-06-28T14:31:01.010Z,2.14
2018-06-28T14:36:55.986Z,2.39
2018-06-28T14:42:51.007Z,2.67
2018-06-28T14:48:46.038Z,3.39
2018-06-28T14:54:41.058Z,2.35
2018-06-28T15:00:36.032Z,2.75
2018-06-28T15:06:31.011Z,1.89
2018-06-28T15:12:26.000Z,2.34
2018-06-28T15:18:21.136Z,2.3
2018-06-28T15:24:16.066Z,2.37
2018-06-28T15:30:11.447Z,2.16
2018-06-28T15:36:06.045Z,2.53
2018-06-28T15:42:01.051Z,7.5
2018-06-28T15:47:56.036Z,17.7
2018-06-28T15:53:51.014Z,21.63
2018-06-28T15:59:46.073Z,31.41
2018-06-28T16:05:41.035Z,27.76
2018-06-28T16:11:36.074Z,9.88
2018-06-28T16:17:31.033Z,28.9
2018-06-28T16:23:26.162Z,18.77
2018-06-28T16:29:21.076Z,27.13
2018-06-28T16:35:16.058Z,20.91
2018-06-28T16:41:11.058Z,7.53
2018-06-28T16:47:06.136Z,6.08
2018-06-28T16:53:01.186Z,1.97
2018-06-28T16:58:56.142Z,2.47
2018-06-28T17:04:51.058Z,6.61
2018-06-28T17:10:46.095Z,11.08
2018-06-28T17:16:41.111Z,12.98
2018-06-28T17:22:36.180Z,7.82
2018-06-28T17:28:31.086Z,1.74
2018-06-28T17:34:26.146Z,2.16
2018-06-28T17:40:21.189Z,2.77
2018-06-28T17:46:16.144Z,2.7
2018-06-28T17:52:11.137Z,2.81
2018-06-28T17:58:06.149Z,2.96
2018-06-28T18:04:01.135Z,3.07
2018-06-28T18:09:56.160Z,2.5
2018-06-28T18:15:51.150Z,2.34
2018-06-28T18:21:46.151Z,2.03
2018-06-28T18:27:41.104Z,2.37
2018-06-28T18:33:36.158Z,2.38
2018-06-28T18:39:31.161Z,2.62
2018-06-28T18:45:26.256Z,2.35
2018-06-28T18:51:21.115Z,2.31
2018-06-28T18:57:16.171Z,2.15
2018-06-28T19:03:11.156Z,2.45
2018-06-28T19:09:06.141Z,3.03
2018-06-28T19:15:01.164Z,2.36
2018-06-28T19:20:56.193Z,2.43
2018-06-28T19:26:51.147Z,2.66
2018-06-28T19:32:46.401Z,2.96
2018-06-28T19:38:41.256Z,3.2
2018-06-28T19:44:36.233Z,2.92
2018-06-28T19:50:31.265Z,2.57
2018-06-28T19:56:26.174Z,2.77
2018-06-28T20:02:21.209Z,2.57
2018-06-28T20:08:16.167Z,2.98
2018-06-28T20:14:11.208Z,2.95
2018-06-28T20:20:06.172Z,3.44
2018-06-28T20:26:01.202Z,2.51
2018-06-28T20:31:56.523Z,2.64
2018-06-28T20:37:51.191Z,2.24
2018-06-28T20:43:46.215Z,1.91
2018-06-28T20:49:41.240Z,1.83
2018-06-28T20:55:36.199Z,2.11
2018-06-28T21:01:31.242Z,2.15
2018-06-28T21:07:26.260Z,2.11
2018-06-28T21:13:21.289Z,1.84
2018-06-28T21:19:16.203Z,2.89
2018-06-28T21:25:11.238Z,3.62
2018-06-28T21:31:06.245Z,3.62
2018-06-28T21:37:01.262Z,3.43
2018-06-28T21:42:56.259Z,2.56
2018-06-28T21:48:51.288Z,2.53
2018-06-28T21:54:46.233Z,2.67
2018-06-28T22:00:41.379Z,2.06
2018-06-28T22:06:36.263Z,2.47
2018-06-28T22:12:31.313Z,3.14
2018-06-28T22:18:26.446Z,3.34
2018-06-28T22:24:21.252Z,3.05
2018-06-28T22:30:16.978Z,2.84
2018-06-28T22:36:11.258Z,2.2
2018-06-28T22:42:06.298Z,2.75
2018-06-28T22:48:01.250Z,2.34
2018-06-28T22:53:56.316Z,2.25
2018-06-28T22:59:51.292Z,2.72
2018-06-28T23:05:46.297Z,2.78
2018-06-28T23:11:41.287Z,2.96
2018-06-28T23:17:36.286Z,2.88
2018-06-28T23:23:31.295Z,2.38
2018-06-28T23:29:26.364Z,2.95
2018-06-28T23:35:21.337Z,2.68
2018-06-28T23:41:16.340Z,2.48
2018-06-28T23:47:11.332Z,2.35
2018-06-28T23:53:06.326Z,2.24
2018-06-28T23:59:01.325Z,2.27
